createdAt,value
2023-05-20T10:14:45.620Z,54.95
2023-05-20T10:15:45.609Z,54.40
2023-05-20T10:16:45.583Z,52.86
2023-05-20T10:17:45.656Z,53.11
2023-05-20T10:18:45.598Z,51.77
2023-05-20T10:19:45.543Z,52.81
2023-05-20T10:20:45.545Z,54.13
2023-05-20T10:21:45.517Z,55.73
2023-05-20T10:22:45.520Z,57.56
2023-05-20T10:23:45.507Z,56.68
2023-05-20T10:24:45.540Z,56.63
2023-05-20T10:25:45.478Z,56.48
2023-05-20T10:26:45.501Z,55.10
2023-05-20T10:27:45.501Z,54.63
2023-05-20T10:28:45.453Z,54.48
2023-05-20T10:29:45.457Z,55.77
2023-05-20T10:30:45.487Z,53.51
2023-05-20T10:31:45.431Z,55.32
2023-05-20T10:32:45.545Z,52.39
2023-05-20T10:33:45.519Z,51.40
2023-05-20T10:34:45.383Z,52.34
2023-05-20T10:35:45.384Z,54.03
2023-05-20T10:36:45.368Z,54.28
2023-05-20T10:37:45.377Z,53.23
2023-05-20T10:38:45.343Z,54.23
2023-05-20T10:39:45.356Z,53.56
2023-05-20T10:40:45.325Z,52.14
2023-05-20T10:41:45.313Z,52.26
2023-05-20T10:42:45.312Z,51.70
2023-05-20T10:43:45.308Z,51.95
2023-05-20T10:44:45.307Z,55.10
2023-05-20T10:45:45.272Z,55.68
2023-05-20T10:47:45.305Z,0.00
2023-05-20T10:48:45.386Z,58.33
2023-05-20T10:49:45.252Z,59.05
2023-05-20T10:50:45.220Z,0.00
2023-05-20T10:51:45.211Z,58.55
2023-05-20T10:52:45.205Z,58.83
2023-05-20T10:53:45.196Z,56.72
2023-05-20T10:54:45.182Z,55.53
2023-05-20T10:55:45.167Z,56.51
2023-05-20T10:56:45.184Z,57.93
2023-05-20T10:57:45.150Z,58.23
2023-05-20T10:58:45.137Z,58.95
2023-05-20T10:59:45.280Z,59.55
2023-05-20T11:00:45.197Z,59.45
2023-05-20T11:01:45.105Z,59.78
2023-05-20T11:02:45.224Z,60.45
2023-05-20T11:03:45.188Z,58.51
2023-05-20T11:04:45.090Z,55.90
2023-05-20T11:05:45.079Z,56.62
2023-05-20T11:06:45.069Z,55.97
2023-05-20T11:07:45.044Z,56.18
2023-05-20T11:08:45.042Z,57.65
2023-05-20T11:09:45.052Z,59.65
2023-05-20T11:10:45.026Z,59.05
2023-05-20T11:11:45.012Z,59.15
2023-05-20T11:12:45.073Z,58.91
2023-05-20T11:13:44.998Z,60.14
2023-05-20T11:14:44.976Z,60.50
2023-05-20T11:15:44.962Z,59.18
2023-05-20T11:16:44.999Z,59.52
2023-05-20T11:17:44.955Z,58.54
2023-05-20T11:18:44.989Z,57.79
2023-05-20T11:19:44.982Z,56.41
2023-05-20T11:20:44.934Z,54.42
2023-05-20T11:21:44.912Z,53.16
2023-05-20T11:22:44.894Z,54.17
2023-05-20T11:23:44.972Z,53.45
2023-05-20T11:24:44.873Z,55.32
2023-05-20T11:25:44.878Z,55.32
2023-05-20T11:26:44.856Z,55.44
2023-05-20T11:27:44.891Z,55.42
2023-05-20T11:28:44.833Z,56.24
2023-05-20T11:29:44.831Z,55.90
2023-05-20T11:30:45.267Z,57.47
2023-05-20T11:31:44.863Z,58.59
2023-05-20T11:32:44.792Z,57.82
2023-05-20T11:33:44.785Z,58.27
2023-05-20T11:34:44.794Z,58.89
2023-05-20T11:35:44.753Z,58.89
2023-05-20T11:36:44.742Z,59.06
2023-05-20T11:37:44.732Z,58.87
2023-05-20T11:38:44.728Z,57.57
2023-05-20T11:39:44.717Z,59.53
2023-05-20T11:40:50.741Z,57.94
2023-05-20T11:41:45.732Z,58.04
2023-05-20T11:42:44.707Z,57.87
2023-05-20T11:43:44.684Z,59.99
2023-05-20T11:44:44.656Z,60.32
2023-05-20T11:45:44.670Z,59.85
2023-05-20T11:46:44.729Z,59.45
2023-05-20T11:47:44.672Z,60.00
2023-05-20T11:48:44.621Z,60.88
2023-05-20T11:49:44.603Z,61.60
2023-05-20T11:50:44.634Z,60.00
2023-05-20T11:51:44.586Z,60.77
2023-05-20T11:52:44.574Z,61.16
2023-05-20T11:53:44.564Z,61.83
2023-05-20T11:54:44.553Z,61.63
2023-05-20T11:55:44.552Z,61.43
2023-05-20T11:56:44.530Z,61.33
2023-05-20T11:57:44.520Z,61.21
2023-05-20T11:58:44.513Z,63.10
2023-05-20T11:59:44.502Z,62.87
2023-05-20T12:00:51.804Z,60.41
2023-05-20T12:01:45.548Z,61.13
2023-05-20T12:02:44.591Z,60.83
2023-05-20T12:03:44.541Z,61.66
2023-05-20T12:04:44.474Z,61.73
2023-05-20T12:05:44.438Z,61.83
2023-05-20T12:06:44.456Z,61.21
2023-05-20T12:07:44.417Z,61.57
2023-05-20T12:08:44.406Z,60.78
2023-05-20T12:09:44.391Z,61.36
2023-05-20T12:10:44.383Z,61.69
2023-05-20T12:11:44.374Z,61.62
2023-05-20T12:12:44.361Z,62.72
2023-05-20T12:13:44.348Z,62.59
2023-05-20T12:14:44.338Z,62.09
2023-05-20T12:15:44.345Z,62.26
2023-05-20T12:16:44.323Z,61.93
2023-05-20T12:17:44.340Z,61.54
2023-05-20T12:18:44.334Z,61.54
2023-05-20T12:19:44.318Z,60.83
2023-05-20T12:20:44.280Z,61.51
2023-05-20T12:21:44.267Z,61.04
2023-05-20T12:22:44.292Z,61.96
2023-05-20T12:23:44.289Z,0.00
2023-05-20T12:24:44.233Z,62.59
2023-05-20T12:25:44.223Z,62.99
2023-05-20T12:26:44.214Z,62.99
2023-05-20T12:27:44.198Z,63.32
2023-05-20T12:28:44.189Z,64.72
2023-05-20T12:29:44.176Z,63.85
2023-05-20T12:30:44.188Z,64.25
2023-05-20T12:31:44.221Z,64.25
2023-05-20T12:32:44.217Z,64.59
2023-05-20T12:33:44.169Z,65.05
2023-05-20T12:34:44.125Z,63.85
2023-05-20T12:35:44.123Z,64.51
2023-05-20T12:36:44.096Z,64.89
2023-05-20T12:37:44.105Z,65.16
2023-05-20T12:38:44.103Z,64.48
2023-05-20T12:39:44.100Z,64.78
2023-05-20T12:40:44.059Z,64.51
2023-05-20T12:41:44.049Z,66.78
2023-05-20T12:42:44.059Z,64.39
2023-05-20T12:43:44.026Z,65.09
2023-05-20T12:44:44.019Z,66.05
2023-05-20T12:45:44.007Z,0.00
2023-05-20T12:46:44.037Z,64.19
2023-05-20T12:47:44.013Z,63.82
2023-05-20T12:48:43.972Z,64.32
2023-05-20T12:49:43.962Z,63.82
2023-05-20T12:50:43.955Z,63.92
2023-05-20T12:51:43.943Z,64.62
2023-05-20T12:52:43.936Z,64.39
2023-05-20T12:53:43.922Z,64.52
2023-05-20T12:54:43.935Z,63.82
2023-05-20T12:55:43.897Z,63.72
2023-05-20T12:56:43.893Z,63.59
2023-05-20T12:57:43.877Z,63.35
2023-05-20T12:58:43.867Z,0.00
2023-05-20T12:59:43.848Z,63.22
2023-05-20T13:00:43.889Z,64.03
2023-05-20T13:01:43.825Z,63.56
2023-05-20T13:02:43.960Z,64.06
2023-05-20T13:03:43.834Z,63.85
2023-05-20T13:04:43.800Z,64.45
2023-05-20T13:05:43.796Z,63.25
2023-05-20T13:06:43.783Z,64.45
2023-05-20T13:07:43.763Z,63.68
2023-05-20T13:08:43.758Z,63.65
2023-05-20T13:09:43.764Z,64.06
2023-05-20T13:10:43.782Z,64.03
2023-05-20T13:11:43.734Z,63.62
2023-05-20T13:12:43.711Z,63.62
2023-05-20T13:13:43.699Z,63.92
2023-05-20T13:14:43.687Z,63.79
2023-05-20T13:15:43.681Z,64.36
2023-05-20T13:16:43.739Z,64.13
2023-05-20T13:17:43.679Z,61.93
2023-05-20T13:18:43.666Z,63.43
2023-05-20T13:19:43.636Z,63.60
2023-05-20T13:20:43.626Z,61.93
2023-05-20T13:21:43.630Z,62.81
2023-05-20T13:22:43.613Z,61.90
2023-05-20T13:23:43.603Z,62.27
2023-05-20T13:24:43.609Z,61.87
2023-05-20T13:25:43.580Z,61.65
2023-05-20T13:26:43.592Z,62.48
2023-05-20T13:27:43.553Z,61.35
2023-05-20T13:28:43.537Z,60.55
2023-05-20T13:29:43.598Z,60.78
2023-05-20T13:30:43.541Z,61.47
2023-05-20T13:31:43.513Z,60.97
2023-05-20T13:32:43.536Z,62.54
2023-05-20T13:33:43.487Z,61.32
2023-05-20T13:34:43.508Z,61.61
2023-05-20T13:35:43.462Z,60.35
2023-05-20T13:36:43.451Z,60.75
2023-05-20T13:37:43.441Z,61.41
2023-05-20T13:38:43.425Z,61.19
2023-05-20T13:39:43.424Z,59.91
2023-05-20T13:40:43.530Z,58.31
2023-05-20T13:41:43.393Z,59.11
2023-05-20T13:42:43.412Z,59.68
2023-05-20T13:43:43.377Z,58.83
2023-05-20T13:44:43.367Z,57.56
2023-05-20T13:45:43.359Z,60.27
2023-05-20T13:46:43.368Z,59.01
2023-05-20T13:47:43.355Z,59.23
2023-05-20T13:48:43.319Z,59.23
2023-05-20T13:49:43.314Z,59.17
2023-05-20T13:50:43.299Z,60.79
2023-05-20T13:51:43.303Z,60.06
2023-05-20T13:52:43.483Z,61.76
2023-05-20T13:53:43.270Z,60.36
2023-05-20T13:54:43.259Z,60.09
2023-05-20T13:55:43.249Z,60.82
2023-05-20T13:56:43.240Z,61.41
2023-05-20T13:57:43.423Z,62.01
2023-05-20T13:58:43.238Z,61.90
2023-05-20T13:59:43.220Z,62.34
2023-05-20T14:00:43.242Z,63.46
2023-05-20T14:01:43.201Z,62.96
2023-05-20T14:02:43.261Z,63.30
2023-05-20T14:03:43.434Z,64.60
2023-05-20T14:04:43.153Z,63.30
2023-05-20T14:05:43.157Z,62.30
2023-05-20T14:06:43.135Z,64.10
2023-05-20T14:07:43.241Z,62.60
2023-05-20T14:08:43.118Z,64.23
2023-05-20T14:09:43.110Z,63.60
2023-05-20T14:10:43.087Z,64.57
2023-05-20T14:11:43.078Z,63.90
2023-05-20T14:12:43.063Z,63.00
2023-05-20T14:13:43.060Z,64.60
2023-05-20T14:14:43.067Z,63.50
2023-05-20T14:15:43.066Z,63.70
2023-05-20T14:16:43.033Z,63.47
2023-05-20T14:17:43.070Z,63.24
2023-05-20T14:18:43.029Z,63.07
2023-05-20T14:19:42.994Z,63.00
2023-05-20T14:20:42.981Z,63.53
2023-05-20T14:21:42.973Z,63.73
2023-05-20T14:22:42.989Z,64.50
2023-05-20T14:23:42.947Z,0.00
2023-05-20T14:24:42.944Z,0.00
2023-05-20T14:25:42.924Z,65.00
2023-05-20T14:26:42.916Z,64.60
2023-05-20T14:27:42.922Z,64.33
2023-05-20T14:28:42.901Z,65.56
2023-05-20T14:29:42.912Z,65.73
2023-05-20T14:30:42.913Z,64.53
2023-05-20T14:31:42.940Z,65.93
2023-05-20T14:32:42.884Z,64.96
2023-05-20T14:33:42.842Z,65.86
2023-05-20T14:34:42.830Z,65.53
2023-05-20T14:35:42.844Z,64.23
2023-05-20T14:36:42.812Z,64.23
2023-05-20T14:37:42.799Z,64.20
2023-05-20T14:38:42.788Z,63.97
2023-05-20T14:39:42.782Z,63.31
2023-05-20T14:40:42.766Z,63.71
2023-05-20T14:41:42.762Z,63.04
2023-05-20T14:42:42.751Z,63.25
2023-05-20T14:43:42.744Z,60.94
2023-05-20T14:44:42.723Z,59.82
2023-05-20T14:45:42.711Z,0.00
2023-05-20T14:46:42.819Z,59.15
2023-05-20T14:47:42.737Z,59.88
2023-05-20T14:48:42.719Z,59.55
2023-05-20T14:49:42.673Z,59.75
2023-05-20T14:50:42.665Z,60.40
2023-05-20T14:51:42.652Z,60.60
2023-05-20T14:52:42.641Z,61.25
2023-05-20T14:53:42.640Z,62.38
2023-05-20T14:54:42.620Z,63.08
2023-05-20T14:55:42.610Z,63.48
2023-05-20T14:56:42.601Z,63.14
2023-05-20T14:57:42.585Z,63.87
2023-05-20T14:58:42.587Z,65.53
2023-05-20T14:59:42.571Z,65.66
2023-05-20T15:00:42.586Z,65.63
2023-05-20T15:01:42.549Z,65.93
2023-05-20T15:02:42.715Z,66.09
2023-05-20T15:03:42.573Z,66.80
2023-05-20T15:04:42.521Z,65.70
2023-05-20T15:05:42.514Z,65.10
2023-05-20T15:06:42.489Z,65.40
2023-05-20T15:07:42.721Z,64.87
2023-05-20T15:08:42.581Z,65.26
2023-05-20T15:09:42.559Z,64.84
2023-05-20T15:10:42.513Z,64.43
2023-05-20T15:11:42.494Z,65.26
2023-05-20T15:12:42.506Z,66.46
2023-05-20T15:13:42.524Z,66.09
2023-05-20T15:14:42.521Z,66.00
2023-05-20T15:15:42.528Z,65.97
2023-05-20T15:16:42.632Z,65.07
2023-05-20T15:17:42.632Z,65.23
2023-05-20T15:18:42.552Z,65.96
2023-05-20T15:19:42.394Z,66.33
2023-05-20T15:20:42.770Z,66.09
2023-05-20T15:21:42.343Z,65.40
2023-05-20T15:22:42.349Z,66.53
2023-05-20T15:23:42.322Z,0.00
2023-05-20T15:24:42.302Z,67.02
2023-05-20T15:25:42.300Z,68.13
2023-05-20T15:26:42.282Z,67.36
2023-05-20T15:27:42.340Z,65.44
2023-05-20T15:28:42.278Z,63.88
2023-05-20T15:29:42.252Z,63.25
2023-05-20T15:30:42.240Z,63.58
2023-05-20T15:31:42.240Z,0.00
2023-05-20T15:32:42.273Z,63.84
2023-05-20T15:33:42.291Z,66.33
2023-05-20T15:34:42.224Z,66.53
2023-05-20T15:35:42.194Z,67.13
2023-05-20T15:36:42.179Z,66.86
2023-05-20T15:37:42.179Z,67.09
2023-05-20T15:38:42.200Z,69.19
2023-05-20T15:39:42.141Z,68.89
2023-05-20T15:40:42.134Z,69.42
2023-05-20T15:41:42.136Z,69.42
2023-05-20T15:42:42.110Z,69.73
2023-05-20T15:43:42.099Z,69.73
2023-05-20T15:44:42.096Z,70.06
2023-05-20T15:45:42.088Z,70.32
2023-05-20T15:46:42.166Z,69.93
2023-05-20T15:47:42.083Z,69.99
2023-05-20T15:48:42.073Z,69.59
2023-05-20T15:49:42.039Z,70.03
2023-05-20T15:50:42.124Z,70.03
2023-05-20T15:51:49.089Z,69.19
2023-05-20T15:52:43.100Z,69.69
2023-05-20T15:53:42.000Z,68.39
2023-05-20T15:54:41.987Z,66.89
2023-05-20T15:55:42.991Z,65.53
2023-05-20T15:56:41.959Z,64.58
2023-05-20T15:57:41.949Z,65.08
2023-05-20T15:58:41.935Z,64.41
2023-05-20T15:59:41.953Z,66.24
2023-05-20T16:00:41.920Z,66.53
2023-05-20T16:01:41.952Z,67.16
2023-05-20T16:02:42.248Z,66.43
2023-05-20T16:03:41.973Z,67.59
2023-05-20T16:04:41.876Z,68.79
2023-05-20T16:05:41.866Z,68.43
2023-05-20T16:06:41.876Z,69.82
2023-05-20T16:07:41.849Z,69.76
2023-05-20T16:08:41.847Z,69.99
2023-05-20T16:09:41.820Z,70.19
2023-05-20T16:10:41.817Z,70.66
2023-05-20T16:11:41.814Z,70.56
2023-05-20T16:12:41.788Z,69.86
2023-05-20T16:13:41.777Z,70.36
2023-05-20T16:14:41.769Z,70.06
2023-05-20T16:15:41.783Z,70.06
2023-05-20T16:16:41.936Z,70.06
2023-05-20T16:17:41.789Z,70.16
2023-05-20T16:18:41.735Z,70.26
2023-05-20T16:19:41.713Z,70.79
2023-05-20T16:20:41.701Z,70.79
2023-05-20T16:21:41.698Z,71.00
2023-05-20T16:22:41.703Z,70.69
2023-05-20T16:23:41.671Z,70.50
2023-05-20T16:24:41.671Z,70.62
2023-05-20T16:25:41.663Z,71.43
2023-05-20T16:26:41.649Z,71.12
2023-05-20T16:27:41.626Z,71.06
2023-05-20T16:28:41.621Z,71.93
2023-05-20T16:29:41.601Z,71.53
2023-05-20T16:30:41.605Z,71.26
2023-05-20T16:31:41.609Z,72.36
2023-05-20T16:32:41.647Z,71.56
2023-05-20T16:33:41.556Z,72.06
2023-05-20T16:34:41.553Z,71.96
2023-05-20T16:35:41.539Z,71.36
2023-05-20T16:36:41.527Z,69.46
2023-05-20T16:37:41.516Z,68.29
2023-05-20T16:38:41.541Z,67.63
2023-05-20T16:39:41.492Z,67.33
2023-05-20T16:40:41.484Z,68.59
2023-05-20T16:41:41.481Z,69.82
2023-05-20T16:42:41.458Z,70.32
2023-05-20T16:43:41.453Z,70.43
2023-05-20T16:44:41.438Z,70.12
2023-05-20T16:45:41.495Z,70.29
2023-05-20T16:46:41.427Z,69.76
2023-05-20T16:47:41.482Z,70.12
2023-05-20T16:48:41.402Z,68.86
2023-05-20T16:49:41.393Z,67.63
2023-05-20T16:50:41.378Z,67.19
2023-05-20T16:51:41.360Z,67.19
2023-05-20T16:52:41.404Z,69.06
2023-05-20T16:53:41.343Z,69.23
2023-05-20T16:54:41.362Z,69.96
2023-05-20T16:55:41.319Z,71.43
2023-05-20T16:56:41.309Z,72.03
2023-05-20T16:57:41.297Z,72.53
2023-05-20T16:58:41.286Z,73.03
2023-05-20T16:59:41.279Z,73.13
2023-05-20T17:00:41.368Z,72.93
2023-05-20T17:01:41.337Z,73.03
2023-05-20T17:02:41.271Z,72.33
2023-05-20T17:03:41.238Z,72.97
2023-05-20T17:04:41.270Z,73.07
2023-05-20T17:05:41.208Z,73.70
2023-05-20T17:06:41.205Z,73.80
2023-05-20T17:07:41.200Z,75.14
2023-05-20T17:08:41.185Z,75.24
2023-05-20T17:09:41.171Z,74.60
2023-05-20T17:10:41.194Z,74.34
2023-05-20T17:11:41.144Z,75.04
2023-05-20T17:12:41.136Z,75.45
2023-05-20T17:13:41.127Z,75.60
2023-05-20T17:14:41.125Z,74.74
2023-05-20T17:15:41.109Z,75.34
2023-05-20T17:16:41.110Z,75.34
2023-05-20T17:17:41.103Z,74.94
2023-05-20T17:18:41.111Z,75.74
2023-05-20T17:19:41.057Z,75.95
2023-05-20T17:20:41.057Z,75.04
2023-05-20T17:21:41.043Z,75.34
2023-05-20T17:22:41.029Z,74.74
2023-05-20T17:23:41.016Z,76.15
2023-05-20T17:24:41.054Z,75.14
2023-05-20T17:25:40.994Z,75.14
2023-05-20T17:26:41.015Z,75.27
2023-05-20T17:27:41.351Z,75.78
2023-05-20T17:28:40.975Z,75.68
2023-05-20T17:29:40.958Z,76.04
2023-05-20T17:30:40.943Z,76.04
2023-05-20T17:31:40.933Z,76.34
2023-05-20T17:32:41.036Z,75.98
2023-05-20T17:33:41.013Z,77.15
2023-05-20T17:34:40.899Z,76.45
2023-05-20T17:35:40.897Z,76.25
2023-05-20T17:36:41.570Z,76.08
2023-05-20T17:37:40.868Z,76.68
2023-05-20T17:38:40.853Z,77.35
2023-05-20T17:39:40.839Z,76.58
2023-05-20T17:40:40.831Z,76.98
2023-05-20T17:41:43.419Z,77.48
2023-05-20T17:42:40.831Z,77.59
2023-05-20T17:43:40.801Z,77.09
2023-05-20T17:44:40.789Z,78.09
2023-05-20T17:45:40.776Z,77.79
2023-05-20T17:46:40.894Z,77.83
2023-05-20T17:47:40.792Z,78.16
2023-05-20T17:48:40.749Z,78.27
2023-05-20T17:49:40.733Z,79.17
2023-05-20T17:50:40.722Z,79.23
2023-05-20T17:51:40.707Z,79.03
2023-05-20T17:52:40.720Z,79.03
2023-05-20T17:53:40.693Z,78.93
2023-05-20T17:54:40.691Z,79.47
2023-05-20T17:55:40.691Z,79.43
2023-05-20T17:56:40.658Z,79.73
2023-05-20T17:57:40.653Z,79.63
2023-05-20T17:58:40.672Z,79.83
2023-05-20T17:59:40.635Z,79.53
2023-05-20T18:00:40.620Z,79.53
2023-05-20T18:01:40.701Z,80.27
2023-05-20T18:02:40.705Z,81.18
2023-05-20T18:03:40.654Z,80.68
2023-05-20T18:04:40.577Z,80.11
2023-05-20T18:05:40.560Z,80.91
2023-05-20T18:06:40.550Z,81.32
2023-05-20T18:07:40.542Z,81.72
2023-05-20T18:08:40.534Z,81.12
2023-05-20T18:09:40.524Z,81.56
2023-05-20T18:10:40.513Z,81.85
2023-05-20T18:11:40.504Z,82.02
2023-05-20T18:12:40.489Z,81.56
2023-05-20T18:13:40.478Z,82.12
2023-05-20T18:14:40.492Z,81.56
2023-05-20T18:15:40.474Z,82.06
2023-05-20T18:16:40.480Z,81.82
2023-05-20T18:17:40.722Z,81.62
2023-05-20T18:18:40.434Z,82.26
2023-05-20T18:19:40.417Z,82.56
2023-05-20T18:20:40.403Z,82.76
2023-05-20T18:21:40.385Z,82.66
2023-05-20T18:22:40.380Z,83.17
2023-05-20T18:23:40.372Z,83.17
2023-05-20T18:24:40.362Z,83.51
2023-05-20T18:25:42.385Z,83.91
2023-05-20T18:26:40.339Z,84.81
2023-05-20T18:27:40.324Z,83.81
2023-05-20T18:28:40.328Z,84.31
2023-05-20T18:29:40.313Z,0.00
2023-05-20T18:30:40.440Z,84.91
2023-05-20T18:31:41.962Z,84.31
2023-05-20T18:32:40.293Z,84.81
2023-05-20T18:33:40.286Z,85.62
2023-05-20T18:34:40.245Z,85.52
2023-05-20T18:35:40.233Z,86.38
2023-05-20T18:36:40.222Z,86.08
2023-05-20T18:37:40.315Z,85.42
2023-05-20T18:38:41.536Z,86.52
2023-05-20T18:39:40.189Z,86.36
2023-05-20T18:40:40.312Z,85.96
2023-05-20T18:42:40.151Z,86.36
2023-05-20T18:43:40.138Z,87.37
2023-05-20T18:44:40.130Z,87.07
2023-05-20T18:45:40.146Z,87.98
2023-05-20T18:46:40.135Z,0.00
2023-05-20T18:47:40.130Z,87.83
2023-05-20T18:48:40.082Z,87.23
2023-05-20T18:49:40.084Z,87.13
2023-05-20T18:50:40.069Z,86.97
2023-05-20T18:51:40.053Z,87.47
2023-05-20T18:52:40.037Z,88.18
2023-05-20T18:53:40.037Z,90.29
2023-05-20T18:54:40.024Z,88.78
2023-05-20T18:55:39.996Z,0.00
2023-05-20T18:56:39.988Z,88.18
2023-05-20T18:57:39.982Z,88.72
2023-05-20T18:58:39.974Z,89.03
2023-05-20T18:59:39.954Z,88.42
2023-05-20T19:00:40.006Z,89.43
2023-05-20T19:01:39.972Z,89.23
2023-05-20T19:02:40.107Z,89.53
2023-05-20T19:03:39.960Z,89.53
2023-05-20T19:04:39.949Z,89.93
2023-05-20T19:05:40.331Z,88.92
2023-05-20T19:06:39.927Z,89.63
2023-05-20T19:07:39.941Z,89.57
2023-05-20T19:08:39.927Z,89.97
2023-05-20T19:09:39.849Z,90.37
2023-05-20T19:10:39.840Z,91.08
2023-05-20T19:11:39.833Z,91.38
2023-05-20T19:12:39.832Z,90.78
2023-05-20T19:13:39.804Z,91.08
2023-05-20T19:14:39.791Z,92.59
2023-05-20T19:15:39.787Z,92.29
2023-05-20T19:16:39.793Z,91.89
2023-05-20T19:17:39.830Z,91.58
2023-05-20T19:18:39.772Z,91.78
2023-05-20T19:19:39.741Z,91.78
2023-05-20T19:20:39.746Z,92.39
2023-05-20T19:21:39.726Z,92.49
2023-05-20T19:22:39.710Z,92.39
2023-05-20T19:23:39.694Z,92.63
2023-05-20T19:24:39.687Z,92.94
2023-05-20T19:25:39.678Z,93.04
2023-05-20T19:26:39.669Z,93.14
2023-05-20T19:27:39.651Z,93.74
2023-05-20T19:28:39.656Z,93.95
2023-05-20T19:29:39.631Z,93.44
2023-05-20T19:30:39.631Z,93.85
2023-05-20T19:31:39.612Z,93.65
2023-05-20T19:32:39.703Z,94.05
2023-05-20T19:33:39.593Z,94.05
2023-05-20T19:34:39.606Z,94.70
2023-05-20T19:35:39.580Z,95.00
2023-05-20T19:36:39.599Z,95.06
2023-05-20T19:37:39.550Z,95.46
2023-05-20T19:38:39.539Z,94.35
2023-05-20T19:39:39.577Z,95.26
2023-05-20T19:40:39.598Z,94.85
2023-05-20T19:41:39.512Z,94.55
2023-05-20T19:42:39.501Z,95.00
2023-05-20T19:43:39.484Z,95.26
2023-05-20T19:44:39.474Z,95.20
2023-05-20T19:45:39.463Z,95.50
2023-05-20T19:46:39.490Z,95.70
2023-05-20T19:47:39.465Z,95.90
2023-05-20T19:48:39.435Z,96.11
2023-05-20T19:49:39.420Z,96.21
2023-05-20T19:50:39.441Z,96.21
2023-05-20T19:51:39.398Z,97.22
2023-05-20T19:52:39.386Z,96.81
2023-05-20T19:53:39.374Z,97.02
2023-05-20T19:54:39.374Z,96.41
2023-05-20T19:55:39.487Z,96.81
2023-05-20T19:56:39.345Z,97.12
2023-05-20T19:57:39.339Z,97.62
2023-05-20T19:58:39.340Z,98.22
2023-05-20T19:59:39.316Z,98.53
2023-05-20T20:00:39.305Z,98.53
2023-05-20T20:01:39.330Z,98.83
2023-05-20T20:02:39.304Z,99.54
2023-05-20T20:03:39.276Z,99.13
2023-05-20T20:04:39.255Z,98.93
2023-05-20T20:05:39.381Z,99.24
2023-05-20T20:06:39.260Z,99.24
2023-05-20T20:07:39.223Z,99.99
2023-05-20T20:08:39.224Z,99.74
2023-05-20T20:09:39.211Z,99.68
2023-05-20T20:10:39.187Z,99.99
2023-05-20T20:11:39.178Z,99.99
2023-05-20T20:12:39.172Z,99.99
2023-05-20T20:13:39.156Z,99.99
2023-05-20T20:14:39.155Z,99.99
2023-05-20T20:15:39.155Z,99.99
2023-05-20T20:16:39.641Z,99.99
2023-05-20T20:17:39.176Z,99.99
2023-05-20T20:18:39.101Z,99.99
2023-05-20T20:19:39.090Z,99.99
2023-05-20T20:20:39.086Z,99.99
2023-05-20T20:21:39.063Z,99.99
2023-05-20T20:22:39.084Z,99.99
2023-05-20T20:23:39.059Z,99.99
2023-05-20T20:24:39.037Z,99.99
2023-05-20T20:25:39.213Z,99.99
2023-05-20T20:26:39.016Z,99.99
2023-05-20T20:27:39.000Z,99.99
2023-05-20T20:28:39.063Z,99.99
2023-05-20T20:29:38.981Z,99.99
2023-05-20T20:30:38.996Z,99.99
2023-05-20T20:31:38.998Z,99.99
2023-05-20T20:32:39.074Z,99.99
2023-05-20T20:33:38.950Z,99.99
2023-05-20T20:34:38.927Z,99.99
2023-05-20T20:35:39.016Z,99.99
2023-05-20T20:36:38.902Z,99.99
2023-05-20T20:37:38.906Z,99.99
2023-05-20T20:38:38.909Z,99.99
2023-05-20T20:39:38.876Z,99.99
2023-05-20T20:40:38.868Z,99.99
2023-05-20T20:41:38.847Z,99.99
2023-05-20T20:42:38.839Z,99.99
2023-05-20T20:43:38.825Z,99.99
2023-05-20T20:44:38.819Z,99.99
2023-05-20T20:45:38.817Z,99.99
2023-05-20T20:46:38.815Z,99.99
2023-05-20T20:47:38.924Z,99.99
2023-05-20T20:48:38.774Z,99.99
2023-05-20T20:49:38.768Z,99.99
2023-05-20T20:50:38.754Z,99.99
2023-05-20T20:51:38.741Z,99.99
2023-05-20T20:52:38.735Z,99.99
2023-05-20T20:53:38.726Z,99.99
2023-05-20T20:54:40.192Z,99.99
2023-05-20T20:55:38.740Z,99.99
2023-05-20T20:56:38.683Z,99.99
2023-05-20T20:57:38.691Z,99.99
2023-05-20T20:58:38.660Z,99.99
2023-05-20T20:59:38.653Z,99.99
2023-05-20T21:00:38.682Z,99.99
2023-05-20T21:01:38.744Z,99.99
2023-05-20T21:02:38.664Z,99.99
2023-05-20T21:03:38.605Z,99.99
2023-05-20T21:04:38.744Z,99.99
2023-05-20T21:05:38.586Z,99.99
2023-05-20T21:06:38.694Z,99.99
2023-05-20T21:07:38.562Z,99.99
2023-05-20T21:08:38.561Z,99.99
2023-05-20T21:09:38.542Z,99.99
2023-05-20T21:10:38.733Z,99.99
2023-05-20T21:11:38.589Z,99.99
2023-05-20T21:12:38.507Z,99.99
2023-05-20T21:13:39.584Z,99.99
2023-05-20T21:14:38.494Z,99.99
2023-05-20T21:15:38.502Z,99.99
2023-05-20T21:16:38.498Z,99.99
2023-05-20T21:17:38.467Z,99.99
2023-05-20T21:18:38.442Z,99.99
2023-05-20T21:19:38.430Z,99.99
2023-05-20T21:20:38.423Z,99.99
2023-05-20T21:21:38.424Z,99.99
2023-05-20T21:22:38.397Z,99.99
2023-05-20T21:23:38.396Z,99.99
2023-05-20T21:24:38.375Z,99.99
2023-05-20T21:25:38.370Z,99.99
2023-05-20T21:26:38.376Z,99.99
2023-05-20T21:27:38.344Z,99.99
2023-05-20T21:28:38.331Z,99.99
2023-05-20T21:29:40.236Z,99.99
2023-05-20T21:30:38.330Z,99.99
2023-05-20T21:31:38.359Z,99.99
2023-05-20T21:32:38.493Z,99.99
2023-05-20T21:33:38.284Z,99.99
2023-05-20T21:34:38.284Z,99.99
2023-05-20T21:35:38.404Z,99.99
2023-05-20T21:36:38.256Z,99.99
2023-05-20T21:37:38.242Z,99.99
2023-05-20T21:38:38.225Z,99.99
2023-05-20T21:39:38.209Z,99.99
2023-05-20T21:40:38.194Z,99.99
2023-05-20T21:41:38.198Z,99.99
2023-05-20T21:42:38.283Z,99.99
2023-05-20T21:43:38.162Z,99.99
2023-05-20T21:44:38.170Z,99.99
2023-05-20T21:45:38.376Z,99.99
2023-05-20T21:46:38.216Z,99.99
2023-05-20T21:47:38.148Z,99.99
2023-05-20T21:48:38.106Z,99.99
2023-05-20T21:49:38.096Z,99.99
2023-05-20T21:50:38.086Z,99.99
2023-05-20T21:51:38.158Z,99.99
2023-05-20T21:52:38.081Z,99.99
2023-05-20T21:53:38.111Z,99.99
2023-05-20T21:54:38.050Z,99.99
2023-05-20T21:55:38.310Z,99.99
2023-05-20T21:56:38.037Z,99.99
2023-05-20T21:57:38.009Z,99.99
2023-05-20T21:58:38.031Z,99.99
2023-05-20T21:59:37.994Z,99.99
2023-05-20T22:00:37.983Z,99.99
2023-05-20T22:01:38.065Z,99.99
2023-05-20T22:02:38.043Z,99.99
2023-05-20T22:03:38.248Z,99.99
2023-05-20T22:04:38.116Z,99.99
2023-05-20T22:05:38.131Z,99.99
2023-05-20T22:06:37.912Z,99.99
2023-05-20T22:07:37.902Z,99.99
2023-05-20T22:08:37.891Z,99.99
2023-05-20T22:09:37.880Z,99.99
2023-05-20T22:10:37.870Z,99.99
2023-05-20T22:11:37.858Z,99.99
2023-05-20T22:12:37.858Z,99.99
2023-05-20T22:13:37.838Z,99.99
2023-05-20T22:14:37.857Z,99.99
2023-05-20T22:15:37.998Z,99.99
2023-05-20T22:16:37.881Z,99.99
2023-05-20T22:17:37.830Z,99.99
2023-05-20T22:18:37.779Z,99.99
2023-05-20T22:19:37.936Z,99.99
2023-05-20T22:20:37.759Z,99.99
2023-05-20T22:21:49.059Z,99.99
2023-05-20T22:22:38.769Z,99.99
2023-05-20T22:23:37.734Z,99.99
2023-05-20T22:24:37.734Z,99.99
2023-05-20T22:25:37.891Z,99.99
2023-05-20T22:26:37.696Z,99.99
2023-05-20T22:27:37.687Z,99.99
2023-05-20T22:28:37.674Z,99.99
2023-05-20T22:29:37.700Z,99.99
2023-05-20T22:30:37.692Z,99.99
2023-05-20T22:31:37.737Z,99.99
2023-05-20T22:32:37.672Z,99.99
2023-05-20T22:33:37.620Z,99.99
2023-05-20T22:34:37.613Z,99.99
2023-05-20T22:35:37.786Z,99.99
2023-05-20T22:36:37.588Z,99.99
2023-05-20T22:37:37.585Z,99.99
2023-05-20T22:38:37.581Z,99.99
2023-05-20T22:39:37.553Z,99.99
2023-05-20T22:40:37.549Z,99.99
2023-05-20T22:41:37.552Z,99.99
2023-05-20T22:42:37.676Z,99.99
2023-05-20T22:43:37.649Z,99.99
2023-05-20T22:44:37.650Z,99.99
2023-05-20T22:45:37.952Z,99.99
2023-05-20T22:46:37.759Z,99.99
2023-05-20T22:47:37.722Z,99.99
2023-05-20T22:48:37.519Z,99.99
2023-05-20T22:49:37.445Z,99.99
2023-05-20T22:50:37.432Z,99.99
2023-05-20T22:51:37.422Z,99.99
2023-05-20T22:52:37.430Z,99.99
2023-05-20T22:53:37.401Z,99.99
2023-05-20T22:54:37.392Z,99.99
2023-05-20T22:55:37.590Z,99.99
2023-05-20T22:56:37.372Z,99.99
2023-05-20T22:57:37.373Z,99.99
2023-05-20T22:58:37.344Z,99.99
2023-05-20T22:59:37.332Z,99.99
2023-05-20T23:00:37.335Z,99.99
2023-05-20T23:01:37.465Z,99.99
2023-05-20T23:02:37.376Z,99.99
2023-05-20T23:03:37.293Z,99.99
2023-05-20T23:04:37.344Z,99.99
2023-05-20T23:05:37.507Z,99.99
2023-05-20T23:06:37.265Z,99.99
2023-05-20T23:07:37.251Z,99.99
2023-05-20T23:08:37.232Z,99.99
2023-05-20T23:09:37.230Z,99.99